Time;durP1;ratioP1;P1;durP2;ratioP2;P2;SDS_P1;SDS_P2;PMS_P1;PMS_P2;Temp;Humidity;BMP_temperature;BMP_pressure;BME280_temperature;BME280_humidity;BME280_pressure;Samples;Min_cycle;Max_cycle;Signal;HPM_P1;HPM_P2
2023/01/31 00:00:54;;;;;;;29.13;6.97;;;;;;;0.06;100.00;102322.56;5082831;28;20123;-82
2023/01/31 00:03:19;;;;;;;28.17;7.13;;;;;;;0.07;100.00;102326.03;5085034;28;20043;-83
2023/01/31 00:05:45;;;;;;;30.33;6.93;;;;;;;0.16;100.00;102325.00;5081734;28;20064;-79
2023/01/31 00:08:11;;;;;;;28.85;6.85;;;;;;;0.19;100.00;102324.31;5085079;28;20024;-80
2023/01/31 00:10:37;;;;;;;30.35;6.95;;;;;;;0.19;100.00;102319.13;5082562;28;20035;-82
2023/01/31 00:13:02;;;;;;;29.00;7.25;;;;;;;0.24;100.00;102335.03;5083852;28;20382;-82
2023/01/31 00:15:27;;;;;;;28.20;6.50;;;;;;;0.34;100.00;102340.09;5083586;28;20031;-80
2023/01/31 00:17:54;;;;;;;28.83;6.63;;;;;;;0.38;100.00;102338.59;5082610;28;20062;-82
2023/01/31 00:20:19;;;;;;;27.85;6.57;;;;;;;0.33;100.00;102333.97;5084193;28;20035;-79
2023/01/31 00:22:44;;;;;;;27.50;6.65;;;;;;;0.31;100.00;102335.56;5081632;28;20063;-81
2023/01/31 00:25:10;;;;;;;28.75;6.68;;;;;;;0.32;100.00;102339.06;5084464;28;20040;-81
2023/01/31 00:27:35;;;;;;;29.27;6.38;;;;;;;0.33;100.00;102346.97;5082311;28;20080;-74
2023/01/31 00:30:00;;;;;;;28.20;6.70;;;;;;;0.31;100.00;102345.97;5083368;28;20112;-82
2023/01/31 00:32:26;;;;;;;30.63;6.95;;;;;;;0.27;100.00;102345.66;5083599;28;20062;-81
2023/01/31 00:34:54;;;;;;;29.60;7.35;;;;;;;0.25;100.00;102357.63;5081843;28;20032;-82
2023/01/31 00:37:21;;;;;;;31.15;6.95;;;;;;;0.25;100.00;102348.16;5084595;28;20043;-81
2023/01/31 00:39:46;;;;;;;28.35;6.85;;;;;;;0.24;100.00;102345.44;5081040;28;20119;-77
2023/01/31 00:42:11;;;;;;;32.05;7.97;;;;;;;0.22;100.00;102332.34;5084397;28;20162;-82
2023/01/31 00:44:37;;;;;;;28.92;7.40;;;;;;;0.14;100.00;102334.38;5082042;28;20043;-82
2023/01/31 00:47:02;;;;;;;27.45;7.18;;;;;;;0.14;100.00;102334.38;5083250;28;20043;-82
2023/01/31 00:49:28;;;;;;;31.17;7.95;;;;;;;0.17;100.00;102324.22;5083088;28;20032;-79
2023/01/31 00:51:53;;;;;;;33.28;8.45;;;;;;;0.15;100.00;102318.00;5082065;28;20033;-81
2023/01/31 00:54:18;;;;;;;31.20;7.78;;;;;;;0.23;100.00;102326.31;5084274;28;20024;-82
2023/01/31 00:56:44;;;;;;;31.02;8.23;;;;;;;0.34;100.00;102327.09;5081465;28;20040;-81
2023/01/31 00:59:10;;;;;;;28.73;8.38;;;;;;;0.37;100.00;102331.59;5084152;28;20064;-77
2023/01/31 01:01:36;;;;;;;30.38;8.05;;;;;;;0.33;100.00;102314.88;5081823;28;20505;-80
2023/01/31 01:04:02;;;;;;;33.72;8.30;;;;;;;0.44;100.00;102323.44;5082876;28;20056;-74
2023/01/31 01:06:27;;;;;;;30.42;8.55;;;;;;;0.51;100.00;102325.63;5083098;28;20115;-74
2023/01/31 01:08:54;;;;;;;32.20;9.05;;;;;;;0.52;100.00;102317.97;5081560;28;20395;-73
2023/01/31 01:11:23;;;;;;;31.02;8.85;;;;;;;0.61;100.00;102312.47;5084009;28;20031;-73
2023/01/31 01:13:49;;;;;;;31.20;8.63;;;;;;;0.62;100.00;102311.66;5081322;28;20024;-73
2023/01/31 01:16:18;;;;;;;29.90;8.75;;;;;;;0.65;100.00;102300.56;5084555;28;20481;-74
2023/01/31 01:18:45;;;;;;;29.33;8.60;;;;;;;0.65;100.00;102304.06;5080708;28;20444;-74
2023/01/31 01:21:23;;;;;;;29.50;8.65;;;;;;;0.73;100.00;102306.28;5083982;28;20111;-73
2023/01/31 01:23:49;;;;;;;30.63;8.60;;;;;;;0.71;100.00;102294.88;5081075;28;20031;-73
2023/01/31 01:26:21;;;;;;;31.45;9.13;;;;;;;0.68;100.00;102286.06;5084059;28;20044;-74
2023/01/31 01:28:47;;;;;;;30.70;8.63;;;;;;;0.69;100.00;102279.16;5080582;28;20025;-73
2023/01/31 01:31:17;;;;;;;28.63;8.63;;;;;;;0.70;100.00;102288.78;5081057;28;20111;-73
2023/01/31 01:33:43;;;;;;;28.30;8.52;;;;;;;0.69;100.00;102287.84;5088513;28;20093;-74
2023/01/31 01:36:12;;;;;;;31.80;9.07;;;;;;;0.71;100.00;102284.47;5085081;28;20437;-74
2023/01/31 01:38:41;;;;;;;31.42;9.00;;;;;;;0.69;100.00;102285.25;5087526;28;20020;-74
2023/01/31 01:41:08;;;;;;;30.52;8.98;;;;;;;0.69;100.00;102284.34;5085289;28;20089;-74
2023/01/31 01:43:48;;;;;;;30.92;9.18;;;;;;;0.67;100.00;102284.25;5086653;28;20467;-83
2023/01/31 01:46:18;;;;;;;32.40;9.85;;;;;;;0.70;100.00;102288.78;5084417;28;20031;-79
2023/01/31 01:48:47;;;;;;;30.60;9.90;;;;;;;0.74;100.00;102277.75;5086972;28;20406;-76
2023/01/31 01:51:15;;;;;;;32.97;10.75;;;;;;;0.71;100.00;102272.34;5084359;28;20024;-79
2023/01/31 01:53:42;;;;;;;31.45;11.13;;;;;;;0.76;100.00;102277.84;5087365;28;20016;-81
2023/01/31 01:56:19;;;;;;;31.63;10.30;;;;;;;0.74;100.00;102269.03;5085104;28;20025;-77
2023/01/31 01:58:53;;;;;;;33.33;10.93;;;;;;;0.73;100.00;102265.53;5084480;28;20020;-81
2023/01/31 02:01:19;;;;;;;31.00;11.32;;;;;;;0.72;100.00;102261.13;5084111;28;20086;-76
2023/01/31 02:03:48;;;;;;;31.10;11.00;;;;;;;0.72;100.00;102273.25;5087651;28;20044;-79
2023/01/31 02:06:13;;;;;;;33.22;11.52;;;;;;;0.72;100.00;102270.66;5084323;28;20116;-82
2023/01/31 02:08:41;;;;;;;32.50;10.90;;;;;;;0.65;100.00;102278.03;5087017;28;20110;-77
2023/01/31 02:11:26;;;;;;;33.83;11.55;;;;;;;0.63;100.00;102283.94;5084946;28;20430;-81
2023/01/31 02:14:11;;;;;;;31.67;11.13;;;;;;;0.57;100.00;102286.09;5084433;28;20028;-80
2023/01/31 02:16:37;;;;;;;31.38;11.40;;;;;;;0.59;100.00;102285.44;5084767;28;20016;-83
2023/01/31 02:19:09;;;;;;;36.95;11.48;;;;;;;0.58;100.00;102283.59;5086003;28;20039;-82
2023/01/31 02:21:54;;;;;;;33.80;11.43;;;;;;;0.49;100.00;102286.50;5085163;28;20031;-80
2023/01/31 02:24:28;;;;;;;36.67;12.38;;;;;;;0.51;100.00;102292.72;5083901;28;20102;-81
2023/01/31 02:27:20;;;;;;;35.20;12.27;;;;;;;0.49;100.00;102298.59;5086518;28;20048;-80
2023/01/31 02:29:45;;;;;;;33.90;12.25;;;;;;;0.47;100.00;102302.81;5083716;28;20033;-81
2023/01/31 02:32:45;;;;;;;35.63;13.02;;;;;;;0.50;100.00;102300.44;5086663;28;20038;-82
2023/01/31 02:35:41;;;;;;;35.03;13.18;;;;;;;0.45;100.00;102289.72;5086589;28;20027;-82
2023/01/31 02:38:57;;;;;;;35.58;14.10;;;;;;;0.48;100.00;102287.31;5086506;28;20455;-82
2023/01/31 02:41:28;;;;;;;37.13;13.73;;;;;;;0.56;100.00;102286.94;5060318;28;20033;-82
2023/01/31 02:46:50;;;;;;;37.75;14.02;;;;;;;0.65;100.00;102285.84;5083680;28;20090;-82
2023/01/31 02:49:44;;;;;;;38.83;15.10;;;;;;;0.68;100.00;102283.47;5083539;28;20024;-80
2023/01/31 02:52:31;;;;;;;36.28;14.90;;;;;;;0.71;100.00;102289.66;5082413;28;20040;-81
2023/01/31 02:57:50;;;;;;;34.58;15.30;;;;;;;0.77;100.00;102280.56;5083241;28;20039;-82
2023/01/31 03:00:17;;;;;;;36.05;15.40;;;;;;;0.78;100.00;102287.56;5083164;28;20021;-80
2023/01/31 03:02:43;;;;;;;36.47;15.60;;;;;;;0.81;100.00;102290.38;5086392;28;20032;-81
2023/01/31 03:05:14;;;;;;;37.17;15.45;;;;;;;0.81;100.00;102284.28;5083721;28;20040;-81
2023/01/31 03:07:42;;;;;;;39.42;16.55;;;;;;;0.84;100.00;102289.69;5085923;28;20032;-82
2023/01/31 03:10:20;;;;;;;37.47;16.35;;;;;;;0.95;100.00;102283.50;5084094;28;20020;-82
2023/01/31 03:12:57;;;;;;;34.60;17.02;;;;;;;0.94;100.00;102268.66;5082823;28;20435;-81
2023/01/31 03:18:52;;;;;;;38.08;17.40;;;;;;;0.97;100.00;102274.06;5080757;28;20032;-74
2023/01/31 03:21:26;;;;;;;36.83;18.05;;;;;;;0.99;100.00;102268.97;5084443;28;20119;-74
2023/01/31 03:23:54;;;;;;;38.67;18.80;;;;;;;1.00;100.00;102270.78;5085068;28;20033;-74
2023/01/31 03:26:21;;;;;;;41.75;19.85;;;;;;;1.04;100.00;102265.84;5085778;28;20482;-73
2023/01/31 03:28:53;;;;;;;40.05;18.58;;;;;;;1.01;100.00;102264.78;5082936;28;20032;-74
2023/01/31 03:31:24;;;;;;;37.60;18.35;;;;;;;0.99;100.00;102269.88;5082897;28;20029;-74
2023/01/31 03:33:54;;;;;;;41.20;19.42;;;;;;;0.93;100.00;102261.63;5082563;28;20085;-74
2023/01/31 03:36:26;;;;;;;40.55;19.13;;;;;;;0.91;100.00;102255.44;5082603;28;20028;-74
2023/01/31 03:38:58;;;;;;;40.50;20.33;;;;;;;0.97;100.00;102250.63;5085871;28;20028;-74
2023/01/31 03:41:33;;;;;;;41.00;20.45;;;;;;;0.99;100.00;102256.84;5083011;28;20070;-74
2023/01/31 03:44:05;;;;;;;40.10;20.83;;;;;;;1.08;100.00;102253.97;5084720;28;20030;-75
2023/01/31 03:46:38;;;;;;;43.78;22.33;;;;;;;1.11;100.00;102248.06;5083776;28;20056;-74
2023/01/31 03:49:07;;;;;;;42.85;21.17;;;;;;;1.11;100.00;102250.66;5083888;28;20024;-74
2023/01/31 03:51:36;;;;;;;41.08;21.80;;;;;;;1.16;100.00;102244.91;5084540;28;20481;-74
2023/01/31 03:54:13;;;;;;;40.92;21.40;;;;;;;1.22;100.00;102241.81;5083409;28;20095;-74
2023/01/31 03:56:43;;;;;;;40.88;21.20;;;;;;;1.23;100.00;102241.03;5084911;28;20036;-74
2023/01/31 03:59:19;;;;;;;38.67;20.65;;;;;;;1.29;100.00;102237.91;5082758;28;20054;-74
2023/01/31 04:01:48;;;;;;;41.63;22.33;;;;;;;1.36;100.00;102240.09;5082492;28;20479;-73
2023/01/31 04:04:20;;;;;;;42.35;22.17;;;;;;;1.36;100.00;102233.19;5085696;28;20031;-74
2023/01/31 04:06:45;;;;;;;42.45;21.60;;;;;;;1.37;100.00;102234.09;5081924;28;20085;-73
2023/01/31 04:09:10;;;;;;;41.53;22.45;;;;;;;1.40;100.00;102242.13;5085020;28;20103;-74
2023/01/31 04:11:38;;;;;;;40.13;22.35;;;;;;;1.38;100.00;102238.50;5083363;28;20032;-74
2023/01/31 04:14:04;;;;;;;41.80;21.58;;;;;;;1.32;100.00;102241.59;5083681;28;20044;-74
2023/01/31 04:16:29;;;;;;;42.22;21.75;;;;;;;1.31;100.00;102236.28;5083896;28;20470;-74
2023/01/31 04:18:55;;;;;;;44.28;22.40;;;;;;;1.34;100.00;102232.19;5082727;28;20463;-74
2023/01/31 04:21:21;;;;;;;41.83;21.08;;;;;;;1.36;100.00;102233.19;5085271;28;20043;-74
2023/01/31 04:23:46;;;;;;;41.45;21.65;;;;;;;1.32;100.00;102233.78;5081899;28;20082;-74
2023/01/31 04:26:12;;;;;;;47.47;23.08;;;;;;;1.34;100.00;102233.88;5084762;28;20401;-74
2023/01/31 04:28:37;;;;;;;42.03;21.40;;;;;;;1.32;100.00;102235.50;5082467;28;20110;-73
2023/01/31 04:31:03;;;;;;;43.22;21.90;;;;;;;1.35;100.00;102236.56;5082328;28;20024;-74
2023/01/31 04:33:28;;;;;;;40.42;21.60;;;;;;;1.40;100.00;102226.47;5083748;28;20026;-73
2023/01/31 04:35:54;;;;;;;39.13;20.83;;;;;;;1.44;100.00;102218.03;5081890;28;20028;-74
2023/01/31 04:38:19;;;;;;;43.63;21.02;;;;;;;1.37;100.00;102221.97;5084983;28;20098;-74
2023/01/31 04:40:44;;;;;;;43.83;21.92;;;;;;;1.31;100.00;102231.06;5081188;28;20037;-74
2023/01/31 04:43:11;;;;;;;40.70;21.60;;;;;;;1.28;100.00;102225.69;5083956;28;20036;-73
2023/01/31 04:45:36;;;;;;;45.35;21.35;;;;;;;1.19;100.00;102231.19;5082798;28;20051;-73
2023/01/31 04:48:02;;;;;;;40.72;21.92;;;;;;;1.17;100.00;102222.41;5082702;28;20463;-73
2023/01/31 04:50:28;;;;;;;41.10;22.60;;;;;;;1.16;100.00;102221.47;5083698;28;20028;-81
2023/01/31 04:52:54;;;;;;;39.53;20.70;;;;;;;1.09;100.00;102218.38;5081850;28;20471;-82
2023/01/31 04:55:20;;;;;;;42.65;21.70;;;;;;;1.18;100.00;102218.97;5084501;28;20161;-83
2023/01/31 04:57:46;;;;;;;39.65;21.80;;;;;;;1.19;100.00;102211.28;5081159;28;20056;-80
2023/01/31 05:00:11;;;;;;;41.40;21.15;;;;;;;1.21;100.00;102203.56;5083997;28;20126;-83
2023/01/31 05:02:37;;;;;;;42.97;21.60;;;;;;;1.21;100.00;102187.94;5082051;28;20024;-83
2023/01/31 05:05:04;;;;;;;42.15;20.70;;;;;;;1.28;100.00;102203.16;5082628;28;20115;-77
2023/01/31 05:07:30;;;;;;;39.60;20.88;;;;;;;1.27;100.00;102192.59;5083191;28;20069;-82
2023/01/31 05:09:55;;;;;;;41.40;21.27;;;;;;;1.29;100.00;102191.91;5081609;28;20036;-81
2023/01/31 05:12:21;;;;;;;38.92;21.10;;;;;;;1.38;100.00;102171.66;5084484;28;20027;-79
2023/01/31 05:14:46;;;;;;;39.00;20.58;;;;;;;1.42;100.00;102182.28;5080920;28;20463;-82
2023/01/31 05:17:12;;;;;;;38.92;20.83;;;;;;;1.40;100.00;102184.78;5083805;28;20024;-83
2023/01/31 05:19:37;;;;;;;38.45;20.23;;;;;;;1.42;100.00;102180.56;5082086;28;20419;-83
2023/01/31 05:22:02;;;;;;;38.58;20.15;;;;;;;1.51;100.00;102180.22;5081269;28;20028;-77
2023/01/31 05:24:32;;;;;;;37.95;19.98;;;;;;;1.48;100.00;102182.66;5083150;28;20109;-81
2023/01/31 05:27:00;;;;;;;43.53;20.67;;;;;;;1.48;100.00;102172.22;5081894;28;20032;-77
2023/01/31 05:29:27;;;;;;;37.78;19.55;;;;;;;1.47;100.00;102173.00;5083381;28;20539;-76
2023/01/31 05:31:53;;;;;;;37.40;19.42;;;;;;;1.50;100.00;102174.13;5079494;28;20436;-73
2023/01/31 05:34:19;;;;;;;39.28;19.58;;;;;;;1.53;100.00;102176.00;5083065;28;20391;-73
2023/01/31 05:36:45;;;;;;;38.35;18.83;;;;;;;1.56;100.00;102165.78;5080699;28;20036;-73
2023/01/31 05:39:10;;;;;;;40.38;19.77;;;;;;;1.50;100.00;102173.19;5082097;28;20406;-73
2023/01/31 05:41:35;;;;;;;39.30;19.85;;;;;;;1.53;100.00;102155.13;5082079;28;20394;-73
2023/01/31 05:44:01;;;;;;;36.20;18.80;;;;;;;1.55;100.00;102144.00;5082013;28;20047;-75
2023/01/31 05:46:26;;;;;;;34.00;17.15;;;;;;;1.63;100.00;102161.84;5083170;28;20105;-81
2023/01/31 05:48:51;;;;;;;37.38;18.73;;;;;;;1.55;100.00;102159.66;5080897;28;20086;-73
2023/01/31 05:51:17;;;;;;;34.92;17.50;;;;;;;1.61;100.00;102153.03;5083983;28;20043;-82
2023/01/31 05:53:42;;;;;;;35.67;17.88;;;;;;;1.63;100.00;102167.97;5080923;28;20035;-73
2023/01/31 05:56:08;;;;;;;37.17;17.83;;;;;;;1.61;100.00;102158.25;5082995;28;20033;-74
2023/01/31 05:58:33;;;;;;;36.45;17.75;;;;;;;1.67;100.00;102153.41;5082125;28;20031;-74
2023/01/31 06:00:59;;;;;;;36.03;17.45;;;;;;;1.67;100.00;102138.66;5081474;28;20033;-73
2023/01/31 06:03:24;;;;;;;33.38;16.63;;;;;;;1.71;100.00;102152.78;5083591;28;20024;-73
2023/01/31 06:05:49;;;;;;;36.58;16.70;;;;;;;1.73;100.00;102159.00;5080379;28;20028;-74
2023/01/31 06:08:16;;;;;;;36.05;16.45;;;;;;;1.71;100.00;102166.72;5083928;28;20086;-74
2023/01/31 06:10:42;;;;;;;35.53;16.40;;;;;;;1.70;100.00;102169.22;5081101;28;20033;-77
2023/01/31 06:13:07;;;;;;;33.53;15.85;;;;;;;1.69;100.00;102160.53;5082847;28;20540;-81
2023/01/31 06:15:33;;;;;;;32.90;15.43;;;;;;;1.72;100.00;102162.41;5082310;28;20032;-77
2023/01/31 06:17:58;;;;;;;33.08;15.45;;;;;;;1.79;100.00;102171.50;5081403;28;20475;-82
2023/01/31 06:20:24;;;;;;;34.58;15.68;;;;;;;1.80;100.00;102162.88;5086888;28;20024;-74
2023/01/31 06:22:49;;;;;;;33.55;15.13;;;;;;;1.81;100.00;102155.16;5083933;28;20048;-74
2023/01/31 06:25:15;;;;;;;34.80;15.65;;;;;;;1.81;100.00;102160.38;5087421;28;20091;-75
2023/01/31 06:27:40;;;;;;;32.55;14.43;;;;;;;1.84;100.00;102162.28;5084502;28;20031;-81
2023/01/31 06:30:07;;;;;;;32.95;15.30;;;;;;;1.84;100.00;102173.59;5085859;28;20028;-74
2023/01/31 06:32:32;;;;;;;34.95;14.68;;;;;;;1.85;100.00;102156.22;5085806;28;20028;-74
2023/01/31 06:34:57;;;;;;;33.72;14.40;;;;;;;1.88;100.00;102159.94;5084603;28;20077;-74
2023/01/31 06:37:23;;;;;;;33.85;14.50;;;;;;;1.88;100.00;102162.53;5087053;28;20043;-74
2023/01/31 06:39:48;;;;;;;33.85;14.30;;;;;;;1.90;100.00;102146.97;5083470;28;20025;-74
2023/01/31 06:42:13;;;;;;;32.22;13.52;;;;;;;1.93;100.00;102144.56;5086458;28;20420;-73
2023/01/31 06:44:39;;;;;;;33.50;14.23;;;;;;;1.96;100.00;102147.34;5084656;28;20200;-74
2023/01/31 06:47:04;;;;;;;31.60;13.00;;;;;;;2.01;100.00;102145.94;5085208;28;20039;-73
2023/01/31 06:49:29;;;;;;;31.35;13.15;;;;;;;2.03;100.00;102132.97;5085820;28;20028;-75
2023/01/31 06:51:55;;;;;;;31.95;12.95;;;;;;;2.10;100.00;102137.75;5083753;28;20044;-74
2023/01/31 06:54:20;;;;;;;33.10;13.10;;;;;;;2.12;100.00;102127.41;5088542;28;20028;-75
2023/01/31 06:56:46;;;;;;;34.45;12.93;;;;;;;2.09;100.00;102135.94;5091412;28;20040;-75
2023/01/31 06:59:11;;;;;;;31.92;13.30;;;;;;;2.04;100.00;102139.97;5092493;28;20070;-77
2023/01/31 07:01:36;;;;;;;29.88;13.05;;;;;;;2.05;100.00;102137.47;5093769;28;20036;-75
2023/01/31 07:04:02;;;;;;;30.38;12.35;;;;;;;2.04;100.00;102140.88;5093759;28;20111;-77
2023/01/31 07:06:27;;;;;;;29.25;12.50;;;;;;;2.09;100.00;102131.63;5094074;28;20470;-75
2023/01/31 07:08:52;;;;;;;32.17;12.82;;;;;;;2.05;100.00;102137.47;5094144;28;20467;-75
2023/01/31 07:11:18;;;;;;;30.73;12.95;;;;;;;2.12;100.00;102124.78;5093746;28;20027;-75
2023/01/31 07:13:46;;;;;;;29.67;12.50;;;;;;;2.13;100.00;102131.81;5093972;28;20107;-74
2023/01/31 07:16:12;;;;;;;33.03;12.57;;;;;;;2.20;100.00;102126.13;5091951;28;20025;-75
2023/01/31 07:18:37;;;;;;;33.78;12.60;;;;;;;2.11;100.00;102117.78;5094066;28;20035;-77
2023/01/31 07:21:03;;;;;;;29.83;12.57;;;;;;;2.10;100.00;102116.88;5093202;28;20036;-75
2023/01/31 07:23:28;;;;;;;31.42;11.60;;;;;;;2.12;100.00;102119.56;5093573;28;20036;-74
2023/01/31 07:25:54;;;;;;;29.90;12.13;;;;;;;2.17;100.00;102116.44;5093748;28;20052;-75
2023/01/31 07:28:19;;;;;;;30.27;12.25;;;;;;;2.24;100.00;102110.75;5093033;28;20036;-74
2023/01/31 07:30:45;;;;;;;30.50;11.23;;;;;;;2.32;100.00;102116.41;5092271;28;20496;-76
2023/01/31 07:33:10;;;;;;;28.67;11.18;;;;;;;2.39;100.00;102118.56;5093528;28;20024;-75
2023/01/31 07:35:35;;;;;;;28.92;11.18;;;;;;;2.46;100.00;102124.16;5093650;28;20029;-75
2023/01/31 07:38:01;;;;;;;28.13;10.68;;;;;;;2.51;100.00;102117.50;5090786;28;20020;-76
2023/01/31 07:40:26;;;;;;;29.58;10.98;;;;;;;2.55;100.00;102116.84;5092543;28;20043;-75
2023/01/31 07:42:59;;;;;;;31.10;10.27;;;;;;;2.64;100.00;102112.16;5092531;28;20024;-74
2023/01/31 07:45:25;;;;;;;28.98;10.32;;;;;;;2.69;100.00;102115.03;5091576;28;20219;-76
2023/01/31 07:47:51;;;;;;;28.92;10.40;;;;;;;2.75;100.00;102105.84;5093145;28;20378;-74
2023/01/31 07:50:16;;;;;;;30.23;10.57;;;;;;;2.78;100.00;102106.00;5092931;28;20025;-75
2023/01/31 07:52:42;;;;;;;27.60;9.95;;;;;;;2.79;100.00;102099.94;5092858;28;20024;-75
2023/01/31 07:55:08;;;;;;;31.10;10.32;;;;;;;2.90;100.00;102089.22;5093090;28;20103;-75
2023/01/31 07:57:33;;;;;;;28.20;10.40;;;;;;;2.93;100.00;102097.22;5093077;28;20036;-76
2023/01/31 07:59:58;;;;;;;27.98;10.13;;;;;;;2.88;100.00;102096.06;5092858;28;20409;-75
2023/01/31 08:05:10;;;;;;;28.80;10.40;;;;;;;2.88;100.00;102088.22;5091937;28;20123;-76
2023/01/31 08:07:35;;;;;;;27.98;10.10;;;;;;;2.91;100.00;102089.31;5089741;28;20059;-76
2023/01/31 08:10:01;;;;;;;26.33;10.63;;;;;;;2.94;100.00;102088.56;5092756;28;20366;-74
2023/01/31 08:12:27;;;;;;;31.48;10.88;;;;;;;2.92;100.00;102071.91;5092705;28;20434;-74
2023/01/31 08:14:52;;;;;;;26.65;9.63;;;;;;;2.96;100.00;102071.28;5092755;28;20028;-75
2023/01/31 08:17:18;;;;;;;28.90;10.55;;;;;;;2.97;100.00;102073.03;5092532;28;20089;-75
2023/01/31 08:19:43;;;;;;;27.25;10.23;;;;;;;3.00;100.00;102082.78;5092131;28;20042;-76
2023/01/31 08:22:09;;;;;;;27.08;10.23;;;;;;;3.02;100.00;102074.22;5092187;28;20032;-73
2023/01/31 08:24:34;;;;;;;26.88;9.52;;;;;;;3.13;100.00;102080.94;5089948;28;20044;-74
2023/01/31 08:27:00;;;;;;;26.55;9.98;;;;;;;3.19;100.00;102080.38;5092782;28;20043;-74
2023/01/31 08:29:26;;;;;;;27.33;9.32;;;;;;;3.23;100.00;102063.13;5092055;28;20028;-74
2023/01/31 08:31:51;;;;;;;27.50;9.38;;;;;;;3.23;100.00;102069.28;5092625;28;20020;-74
2023/01/31 08:34:17;;;;;;;26.58;9.55;;;;;;;3.32;100.00;102055.78;5092421;28;20032;-74
2023/01/31 08:36:43;;;;;;;26.40;9.25;;;;;;;3.35;100.00;102058.56;5092659;28;20031;-74
2023/01/31 08:39:09;;;;;;;25.27;8.48;;;;;;;3.43;100.00;102062.47;5092306;28;20028;-83
2023/01/31 08:41:35;;;;;;;27.50;8.93;;;;;;;3.47;100.00;102064.44;5091737;28;20058;-74
2023/01/31 08:44:02;;;;;;;27.63;9.18;;;;;;;3.52;100.00;102058.53;5092089;28;20028;-75
2023/01/31 08:46:31;;;;;;;27.63;8.93;;;;;;;3.60;100.00;102052.91;5092108;28;20111;-74
2023/01/31 08:48:57;;;;;;;26.92;9.38;;;;;;;3.62;100.00;102045.13;5091682;28;20098;-74
2023/01/31 08:51:22;;;;;;;27.95;9.43;;;;;;;3.62;100.00;102059.09;5092420;28;20111;-75
2023/01/31 08:53:48;;;;;;;26.52;8.80;;;;;;;3.62;100.00;102043.41;5091474;28;20032;-74
2023/01/31 08:56:14;;;;;;;28.27;9.00;;;;;;;3.61;100.00;102044.25;5091526;28;20032;-72
2023/01/31 08:58:42;;;;;;;27.48;9.10;;;;;;;3.66;100.00;102031.41;5092168;28;20047;-72
2023/01/31 09:01:14;;;;;;;27.45;9.05;;;;;;;3.71;100.00;102031.63;5091731;28;20471;-74
2023/01/31 09:03:40;;;;;;;25.33;8.45;;;;;;;3.75;100.00;102044.94;5092568;28;20028;-73
2023/01/31 09:06:09;;;;;;;26.63;9.25;;;;;;;3.77;100.00;102035.47;5091723;28;20024;-72
2023/01/31 09:08:35;;;;;;;26.80;9.00;;;;;;;3.81;100.00;102032.16;5092140;28;20028;-72
2023/01/31 09:11:01;;;;;;;25.65;8.55;;;;;;;3.85;100.00;102030.63;5091610;28;20035;-72
2023/01/31 09:13:27;;;;;;;25.67;8.38;;;;;;;3.88;100.00;102030.78;5083569;28;20085;-75
2023/01/31 09:16:04;;;;;;;26.80;8.82;;;;;;;3.92;100.00;102026.59;5081631;28;20020;-75
2023/01/31 09:18:32;;;;;;;26.83;8.63;;;;;;;3.93;100.00;102036.22;5082935;28;20055;-75
2023/01/31 09:21:06;;;;;;;28.95;9.10;;;;;;;3.93;100.00;102033.63;5081865;28;20025;-75
2023/01/31 09:23:32;;;;;;;27.23;8.50;;;;;;;3.99;100.00;102031.28;5082447;28;20486;-73
2023/01/31 09:25:57;;;;;;;25.23;8.40;;;;;;;4.07;100.00;102024.75;5081939;28;20049;-72
2023/01/31 09:28:23;;;;;;;25.90;8.32;;;;;;;4.22;100.00;102013.22;5083779;28;20024;-73
2023/01/31 09:30:52;;;;;;;27.15;8.80;;;;;;;4.34;100.00;102004.25;5080926;28;20090;-73
2023/01/31 09:33:17;;;;;;;26.42;8.00;;;;;;;4.56;100.00;102005.28;5083720;28;20021;-72
2023/01/31 09:35:54;;;;;;;25.83;7.97;;;;;;;4.72;100.00;102001.66;5080093;28;20042;-75
2023/01/31 09:38:19;;;;;;;24.90;7.75;;;;;;;4.79;100.00;102018.56;5091594;28;20054;-75
2023/01/31 09:40:45;;;;;;;25.10;7.50;;;;;;;4.88;100.00;102012.03;5091280;28;20028;-75
2023/01/31 09:43:11;;;;;;;25.13;7.70;;;;;;;4.85;100.00;102022.38;5087454;28;20069;-73
2023/01/31 09:45:42;;;;;;;27.35;8.15;;;;;;;4.87;100.00;102015.47;5091360;28;20032;-73
2023/01/31 09:48:17;;;;;;;26.38;8.00;;;;;;;5.05;100.00;102004.94;5092042;28;20033;-75
2023/01/31 09:50:48;;;;;;;24.83;7.93;;;;;;;5.24;100.00;101998.81;5089090;28;20069;-75
2023/01/31 09:53:20;;;;;;;25.95;7.90;;;;;;;5.46;100.00;102002.38;5093147;28;20027;-74
2023/01/31 09:56:11;;;;;;;25.98;7.47;;;;;;;5.62;100.00;102010.91;5094383;28;20096;-75
2023/01/31 09:59:33;;;;;;;24.52;7.72;;;;;;;5.79;100.00;102009.88;5094225;28;20024;-75
2023/01/31 10:02:13;;;;;;;24.75;7.50;;;;;;;5.74;100.00;102024.56;5071900;28;20124;-74
2023/01/31 10:04:56;;;;;;;25.38;8.10;;;;;;;5.45;100.00;102005.81;5072375;28;20033;-76
2023/01/31 10:07:29;;;;;;;;;;;;;;;5.49;100.00;102019.94;5090655;28;20093;-78
2023/01/31 10:10:04;;;;;;;26.75;8.57;;;;;;;5.14;100.00;102008.78;5092104;28;19920;-76
2023/01/31 10:12:37;;;;;;;28.15;9.05;;;;;;;5.00;100.00;102016.03;5092722;28;20093;-75
2023/01/31 10:15:15;;;;;;;26.55;9.60;;;;;;;4.95;100.00;102014.91;5094761;28;20020;-76
2023/01/31 10:17:46;;;;;;;24.95;9.38;;;;;;;4.83;100.00;102002.16;5092618;28;20028;-78
2023/01/31 10:20:43;;;;;;;25.73;10.25;;;;;;;4.94;100.00;102007.91;5094809;28;20080;-76
2023/01/31 10:23:22;;;;;;;26.88;9.93;;;;;;;4.94;100.00;101989.56;5092336;28;20070;-75
2023/01/31 10:25:58;;;;;;;27.50;10.68;;;;;;;4.89;100.00;101979.75;5094530;28;20043;-75
2023/01/31 10:28:34;;;;;;;26.65;11.30;;;;;;;4.86;100.00;101989.19;5095003;28;20494;-78
2023/01/31 10:31:18;;;;;;;28.67;13.20;;;;;;;4.79;100.00;101990.66;5093958;28;20372;-76
2023/01/31 10:33:56;;;;;;;28.58;13.57;;;;;;;4.74;100.00;102002.63;5094355;28;20098;-78
2023/01/31 10:36:37;;;;;;;30.23;14.20;;;;;;;4.75;100.00;102014.91;5091844;28;20020;-74
2023/01/31 10:39:15;;;;;;;32.55;15.43;;;;;;;4.77;100.00;102013.25;5093793;28;20020;-74
2023/01/31 10:41:53;;;;;;;32.90;16.58;;;;;;;4.81;100.00;102015.19;5074115;28;20165;-75
2023/01/31 10:45:00;;;;;;;35.75;17.10;;;;;;;4.88;100.00;101998.03;5093988;28;20028;-75
2023/01/31 10:47:40;;;;;;;32.05;16.52;;;;;;;5.01;100.00;101983.75;5091150;28;20130;-75
2023/01/31 10:50:24;;;;;;;33.50;18.08;;;;;;;5.38;100.00;102002.03;5075782;28;20036;-75
2023/01/31 10:53:47;;;;;;;31.75;18.23;;;;;;;5.35;100.00;101982.66;5092112;28;20101;-75
2023/01/31 10:56:23;;;;;;;33.38;18.75;;;;;;;5.20;100.00;101973.28;5091906;28;20024;-75
2023/01/31 10:58:50;;;;;;;33.00;18.40;;;;;;;5.24;100.00;101980.44;5090554;28;20461;-75
2023/01/31 11:01:16;;;;;;;33.20;18.23;;;;;;;5.21;100.00;101967.22;5082889;28;20032;-74
2023/01/31 11:03:49;;;;;;;32.38;18.13;;;;;;;5.26;100.00;101975.28;5091994;28;20043;-75
2023/01/31 11:06:14;;;;;;;;;;;;;;;5.36;100.00;101973.97;5088591;28;20477;-73
2023/01/31 11:08:44;;;;;;;33.60;19.30;;;;;;;5.43;100.00;101978.59;5083723;28;19924;-73
2023/01/31 11:11:16;;;;;;;31.83;18.80;;;;;;;5.48;100.00;101992.84;5087068;28;20373;-73
2023/01/31 11:13:56;;;;;;;33.63;18.83;;;;;;;5.53;100.00;101969.41;5083447;28;20462;-73
2023/01/31 11:16:23;;;;;;;31.92;18.17;;;;;;;5.48;100.00;101956.13;5084032;28;20027;-73
2023/01/31 11:18:50;;;;;;;30.77;17.92;;;;;;;5.59;100.00;101965.34;5086106;28;20052;-75
2023/01/31 11:21:27;;;;;;;29.88;17.15;;;;;;;5.66;100.00;101939.38;5081553;28;20434;-76
2023/01/31 11:24:05;;;;;;;32.92;18.48;;;;;;;5.74;100.00;101958.97;5083666;28;20459;-75
2023/01/31 11:26:36;;;;;;;31.60;16.95;;;;;;;5.78;100.00;101936.34;5084113;28;20064;-78
2023/01/31 11:29:14;;;;;;;30.70;17.00;;;;;;;5.75;100.00;101921.38;5085108;28;20391;-78
2023/01/31 11:31:41;;;;;;;30.10;17.20;;;;;;;5.84;100.00;101940.13;5083396;28;20119;-77
2023/01/31 11:34:22;;;;;;;31.27;16.60;;;;;;;6.00;100.00;101930.28;5085755;28;20035;-78